createdAt,value
2023-10-10T00:00:37.908Z,100257.66
2023-10-10T00:01:42.018Z,100252.39
2023-10-10T00:02:44.811Z,100248.97
2023-10-10T00:03:47.613Z,100245.51
2023-10-10T00:04:50.369Z,100245.51
2023-10-10T00:05:53.194Z,100246.48
2023-10-10T00:06:56.066Z,100252.60
2023-10-10T00:07:58.735Z,100242.11
2023-10-10T00:09:01.501Z,100252.64
2023-10-10T00:10:04.331Z,100249.14
2023-10-10T00:11:07.604Z,100242.22
2023-10-10T00:12:10.813Z,100237.86
2023-10-10T00:13:13.150Z,100248.38
2023-10-10T00:14:15.441Z,100244.98
2023-10-10T00:15:17.726Z,100243.25
2023-10-10T00:16:21.368Z,100240.63
2023-10-10T00:17:24.144Z,100242.39
2023-10-10T00:18:26.528Z,100247.75
2023-10-10T00:19:28.852Z,100245.88
2023-10-10T00:20:31.312Z,100239.89
2023-10-10T00:21:33.594Z,100252.11
2023-10-10T00:22:35.915Z,100251.28
2023-10-10T00:23:38.928Z,100245.16
2023-10-10T00:24:41.434Z,100246.88
2023-10-10T00:25:43.750Z,100237.30
2023-10-10T00:26:46.047Z,100251.34
2023-10-10T00:27:48.339Z,100247.78
2023-10-10T00:28:51.441Z,100251.28
2023-10-10T00:29:53.686Z,100253.94
2023-10-10T00:30:55.830Z,100252.20
2023-10-10T00:31:58.282Z,100246.98
2023-10-10T00:33:01.879Z,100242.66
2023-10-10T00:34:05.321Z,100244.39
2023-10-10T00:35:08.027Z,100241.72
2023-10-10T00:36:11.915Z,100245.16
2023-10-10T00:37:18.940Z,100245.98
2023-10-10T00:38:21.408Z,100243.25
2023-10-10T00:39:23.551Z,100246.64
2023-10-10T00:40:26.415Z,100243.12
2023-10-10T00:41:29.247Z,100240.38
2023-10-10T00:42:32.246Z,100243.78
2023-10-10T00:43:35.126Z,100242.81
2023-10-10T00:44:37.491Z,100240.14
2023-10-10T00:45:40.122Z,100244.47
2023-10-10T00:46:43.047Z,100237.41
2023-10-10T00:47:46.788Z,100238.17
2023-10-10T00:48:49.207Z,100238.13
2023-10-10T00:49:51.649Z,100233.70
2023-10-10T00:50:54.652Z,100239.83
2023-10-10T00:51:58.862Z,100230.09
2023-10-10T00:53:02.279Z,100235.28
2023-10-10T00:54:05.340Z,100232.62
2023-10-10T00:55:09.374Z,100236.00
2023-10-10T00:56:12.130Z,100236.83
2023-10-10T00:57:15.221Z,100243.79
2023-10-10T00:58:18.913Z,100232.32
2023-10-10T00:59:22.832Z,100241.95
2023-10-10T01:00:25.306Z,100241.95
2023-10-10T01:01:27.702Z,100241.95
2023-10-10T01:02:30.019Z,100242.77
2023-10-10T01:03:32.664Z,100241.05
2023-10-10T01:04:35.175Z,100248.08
2023-10-10T01:05:38.600Z,100237.55
2023-10-10T01:06:40.873Z,100242.77
2023-10-10T01:07:44.764Z,100247.22
2023-10-10T01:10:02.270Z,100239.89
2023-10-10T01:11:04.793Z,100242.02
2023-10-10T01:12:07.472Z,100249.05
2023-10-10T01:13:10.365Z,100247.28
2023-10-10T01:14:12.759Z,100249.02
2023-10-10T01:15:15.157Z,100245.48
2023-10-10T01:16:18.162Z,100249.02
2023-10-10T01:17:21.318Z,100249.84
2023-10-10T01:18:23.671Z,100246.34
2023-10-10T01:19:26.662Z,100254.28
2023-10-10T01:20:29.963Z,100248.16
2023-10-10T01:21:32.347Z,100250.75
2023-10-10T01:22:35.029Z,100251.65
2023-10-10T01:23:39.435Z,100256.91
2023-10-10T01:24:41.893Z,100259.58
2023-10-10T01:25:44.248Z,100257.81
2023-10-10T01:26:47.440Z,100261.34
2023-10-10T01:27:50.779Z,100261.31
2023-10-10T01:28:53.079Z,100261.34
2023-10-10T01:29:56.618Z,100263.95
2023-10-10T01:30:59.090Z,100264.81
2023-10-10T01:32:01.318Z,100257.85
2023-10-10T01:33:04.055Z,100256.08
2023-10-10T01:34:06.433Z,100257.85
2023-10-10T01:35:08.953Z,100262.22
2023-10-10T01:36:12.374Z,100257.81
2023-10-10T01:37:14.811Z,100254.36
2023-10-10T01:38:36.253Z,100253.45
2023-10-10T01:39:48.298Z,100262.22
2023-10-10T01:40:50.738Z,100260.52
2023-10-10T01:41:53.329Z,100253.52
2023-10-10T01:42:55.846Z,100260.52
2023-10-10T01:44:02.040Z,100250.89
2023-10-10T01:45:05.446Z,100260.52
2023-10-10T01:46:08.061Z,100254.42
2023-10-10T01:47:10.520Z,100257.95
2023-10-10T01:48:14.781Z,100260.52
2023-10-10T01:49:18.109Z,100253.48
2023-10-10T01:50:22.468Z,100257.89
2023-10-10T01:51:25.236Z,100263.16
2023-10-10T01:52:27.951Z,100264.02
2023-10-10T01:53:30.323Z,100257.89
2023-10-10T01:54:32.779Z,100256.16
2023-10-10T01:55:35.148Z,100257.89
2023-10-10T01:56:38.062Z,100263.16
2023-10-10T01:57:40.569Z,100259.69
2023-10-10T01:58:42.929Z,100260.55
2023-10-10T01:59:49.791Z,100255.30
2023-10-10T02:00:52.624Z,100257.89
2023-10-10T02:01:55.312Z,100248.23
2023-10-10T02:02:58.298Z,100252.62
2023-10-10T02:04:01.224Z,100250.03
2023-10-10T02:05:04.333Z,100245.62
2023-10-10T02:06:07.154Z,100246.60
2023-10-10T02:07:09.787Z,100245.66
2023-10-10T02:08:12.199Z,100250.06
2023-10-10T02:09:14.699Z,100248.37
2023-10-10T02:10:17.686Z,100255.44
2023-10-10T02:11:20.070Z,100246.64
2023-10-10T02:12:22.577Z,100252.80
2023-10-10T02:14:20.680Z,100255.14
2023-10-10T02:15:23.055Z,100251.94
2023-10-10T02:16:25.390Z,100251.94
2023-10-10T02:17:29.113Z,100251.07
2023-10-10T02:18:32.586Z,100251.07
2023-10-10T02:19:37.652Z,100244.08
2023-10-10T02:20:41.083Z,100246.71
2023-10-10T02:21:44.606Z,100249.38
2023-10-10T02:22:47.717Z,100252.91
2023-10-10T02:23:50.050Z,100245.02
2023-10-10T02:24:52.895Z,100252.95
2023-10-10T02:25:55.707Z,100254.75
2023-10-10T02:26:58.458Z,100245.09
2023-10-10T02:28:01.397Z,100247.75
2023-10-10T02:29:05.257Z,100249.48
2023-10-10T02:30:09.394Z,100252.19
2023-10-10T02:31:11.898Z,100254.81
2023-10-10T02:32:14.816Z,100257.45
2023-10-10T02:33:17.411Z,100244.39
2023-10-10T02:34:20.136Z,100248.76
2023-10-10T02:35:22.543Z,100250.52
2023-10-10T02:36:24.833Z,100247.03
2023-10-10T02:37:27.105Z,100236.54
2023-10-10T02:38:31.817Z,100247.92
2023-10-10T02:39:34.176Z,100246.20
2023-10-10T02:40:36.701Z,100245.33
2023-10-10T02:41:39.170Z,100253.27
2023-10-10T02:43:56.981Z,100246.02
2023-10-10T02:45:00.496Z,100246.41
2023-10-10T02:46:02.947Z,100243.78
2023-10-10T02:47:06.082Z,100244.61
2023-10-10T02:48:08.911Z,100248.14
2023-10-10T02:49:15.233Z,100248.24
2023-10-10T02:50:18.153Z,100242.11
2023-10-10T02:51:21.189Z,100241.25
2023-10-10T02:52:23.776Z,100242.11
2023-10-10T02:53:26.457Z,100247.37
2023-10-10T02:54:29.751Z,100243.05
2023-10-10T02:55:32.225Z,100240.38
2023-10-10T02:56:34.844Z,100243.05
2023-10-10T02:57:37.122Z,100243.98
2023-10-10T02:58:39.939Z,100244.02
2023-10-10T02:59:42.673Z,100243.19
2023-10-10T03:00:45.398Z,100241.45
2023-10-10T03:01:48.674Z,100245.02
2023-10-10T03:02:51.963Z,100245.95
2023-10-10T03:03:56.823Z,100238.09
2023-10-10T03:05:01.153Z,100241.63
2023-10-10T03:06:05.121Z,100238.23
2023-10-10T03:07:07.935Z,100238.23
2023-10-10T03:08:12.341Z,100236.50
2023-10-10T03:09:15.280Z,100247.02
2023-10-10T03:10:18.681Z,100237.53
2023-10-10T03:11:21.279Z,100236.66
2023-10-10T03:12:23.620Z,100244.55
2023-10-10T03:13:25.890Z,100240.19
2023-10-10T03:14:28.338Z,100245.41
2023-10-10T03:15:31.341Z,100238.36
2023-10-10T03:16:34.934Z,100246.34
2023-10-10T03:17:44.200Z,100229.74
2023-10-10T03:18:47.497Z,100235.93
2023-10-10T03:19:50.161Z,100235.93
2023-10-10T03:20:52.501Z,100238.62
2023-10-10T03:21:54.990Z,100240.36
2023-10-10T03:22:58.666Z,100243.05
2023-10-10T03:24:01.107Z,100249.17
2023-10-10T03:25:04.184Z,100241.28
2023-10-10T03:26:07.474Z,100242.19
2023-10-10T03:27:11.179Z,100241.38
2023-10-10T03:29:24.391Z,100245.55
2023-10-10T03:30:27.436Z,100245.94
2023-10-10T03:31:30.098Z,100245.97
2023-10-10T03:32:33.189Z,100248.56
2023-10-10T03:33:37.348Z,100245.99
2023-10-10T03:34:40.391Z,100249.45
2023-10-10T03:35:42.711Z,100246.83
2023-10-10T03:36:45.590Z,100251.25
2023-10-10T03:37:48.874Z,100251.28
2023-10-10T03:38:52.553Z,100250.41
2023-10-10T03:39:55.885Z,100246.12
2023-10-10T03:40:58.328Z,100249.61
2023-10-10T03:42:01.910Z,100243.49
2023-10-10T03:43:04.292Z,100247.88
2023-10-10T03:44:06.663Z,100240.83
2023-10-10T03:45:09.801Z,100239.00
2023-10-10T03:46:12.783Z,100249.48
2023-10-10T03:47:15.307Z,100250.36
2023-10-10T03:48:17.964Z,100250.32
2023-10-10T03:49:20.530Z,100246.80
2023-10-10T03:50:22.918Z,100248.50
2023-10-10T03:51:25.114Z,100244.94
2023-10-10T03:52:27.505Z,100248.34
2023-10-10T03:53:30.171Z,100243.05
2023-10-10T03:54:32.464Z,100242.19
2023-10-10T03:55:38.143Z,100245.64
2023-10-10T03:56:40.906Z,100249.11
2023-10-10T03:57:43.363Z,100251.77
2023-10-10T03:58:45.659Z,100250.00
2023-10-10T03:59:47.930Z,100248.24
2023-10-10T04:00:55.565Z,100251.77
2023-10-10T04:01:57.865Z,100257.05
2023-10-10T04:03:01.065Z,100248.34
2023-10-10T04:04:04.081Z,100250.97
2023-10-10T04:05:23.745Z,100259.91
2023-10-10T04:06:11.044Z,100256.38
2023-10-10T04:07:13.400Z,100260.77
2023-10-10T04:08:15.758Z,100265.23
2023-10-10T04:09:18.030Z,100266.12
2023-10-10T04:10:20.373Z,100268.75
2023-10-10T04:11:23.191Z,100268.78
2023-10-10T04:12:25.395Z,100272.27
2023-10-10T04:13:28.026Z,100270.55
2023-10-10T04:14:30.408Z,100270.55
2023-10-10T04:15:34.329Z,100272.27
2023-10-10T04:16:37.260Z,100271.41
2023-10-10T04:17:41.814Z,100272.27
2023-10-10T04:18:44.559Z,100280.13
2023-10-10T04:19:47.996Z,100277.47
2023-10-10T04:20:50.874Z,100282.73
2023-10-10T04:21:53.542Z,100284.45
2023-10-10T04:22:55.806Z,100287.09
2023-10-10T04:23:58.156Z,100280.94
2023-10-10T04:25:02.694Z,100292.28
2023-10-10T04:26:05.478Z,100294.02
2023-10-10T04:27:08.139Z,100294.91
2023-10-10T04:28:10.861Z,100297.54
2023-10-10T04:29:13.172Z,100291.33
2023-10-10T04:30:16.304Z,100294.75
2023-10-10T04:31:18.802Z,100299.08
2023-10-10T04:32:22.640Z,100299.95
2023-10-10T04:33:25.433Z,100299.95
2023-10-10T04:34:28.566Z,100301.75
2023-10-10T04:35:30.913Z,100304.31
2023-10-10T04:36:33.671Z,100299.05
2023-10-10T04:37:36.326Z,100305.23
2023-10-10T04:38:38.949Z,100307.00
2023-10-10T04:39:41.515Z,100304.41
2023-10-10T04:40:44.008Z,100313.16
2023-10-10T04:41:46.322Z,100307.99
2023-10-10T04:42:48.712Z,100321.14
2023-10-10T04:43:52.954Z,100312.36
2023-10-10T04:44:55.512Z,100315.94
2023-10-10T04:45:57.960Z,100318.59
2023-10-10T04:47:00.564Z,100313.34
2023-10-10T04:48:02.961Z,100317.73
2023-10-10T04:49:05.607Z,100317.73
2023-10-10T04:50:09.289Z,100322.98
2023-10-10T04:51:11.648Z,100321.25
2023-10-10T04:52:14.279Z,100324.72
2023-10-10T04:53:16.626Z,100329.08
2023-10-10T04:54:20.029Z,100324.66
2023-10-10T04:55:22.229Z,100319.41
2023-10-10T04:56:24.562Z,100328.13
2023-10-10T04:57:26.774Z,100319.41
2023-10-10T04:58:29.005Z,100310.53
2023-10-10T04:59:31.367Z,100318.36
2023-10-10T05:00:34.120Z,100313.03
2023-10-10T05:01:36.434Z,100311.27
2023-10-10T05:02:38.691Z,100316.41
2023-10-10T05:03:44.944Z,100316.31
2023-10-10T05:04:47.440Z,100319.74
2023-10-10T05:05:57.062Z,100326.67
2023-10-10T05:06:59.710Z,100328.31
2023-10-10T05:08:02.146Z,100322.25
2023-10-10T05:09:04.603Z,100323.05
2023-10-10T05:10:07.462Z,100326.52
2023-10-10T05:11:09.697Z,100325.61
2023-10-10T05:12:12.020Z,100329.95
2023-10-10T05:13:14.540Z,100334.27
2023-10-10T05:14:16.977Z,100327.28
2023-10-10T05:15:19.701Z,100328.98
2023-10-10T05:16:23.133Z,100331.64
2023-10-10T05:17:25.580Z,100330.81
2023-10-10T05:19:21.277Z,100326.98
2023-10-10T05:20:24.648Z,100324.69
2023-10-10T05:21:27.153Z,100329.05
2023-10-10T05:22:29.459Z,100336.07
2023-10-10T05:23:33.766Z,100335.20
2023-10-10T05:24:36.060Z,100334.34
2023-10-10T05:25:38.743Z,100339.59
2023-10-10T05:26:41.553Z,100330.94
2023-10-10T05:27:44.091Z,100334.50
2023-10-10T05:29:57.321Z,100323.69
2023-10-10T05:31:02.559Z,100333.66
2023-10-10T05:32:05.158Z,100334.50
2023-10-10T05:33:07.568Z,100328.37
2023-10-10T05:34:09.812Z,100329.30
2023-10-10T05:35:12.245Z,100331.03
2023-10-10T05:36:15.210Z,100329.30
2023-10-10T05:37:18.074Z,100334.56
2023-10-10T05:38:20.713Z,100338.02
2023-10-10T05:39:23.035Z,100345.95
2023-10-10T05:40:26.512Z,100343.28
2023-10-10T05:41:28.886Z,100344.09
2023-10-10T05:42:31.661Z,100346.72
2023-10-10T05:43:35.742Z,100347.58
2023-10-10T05:44:38.053Z,100344.92
2023-10-10T05:45:40.466Z,100351.85
2023-10-10T05:46:44.049Z,100348.33
2023-10-10T05:47:46.751Z,100349.13
2023-10-10T05:48:49.073Z,100344.77
2023-10-10T05:49:52.370Z,100351.72
2023-10-10T05:50:55.132Z,100343.73
2023-10-10T05:51:57.714Z,100349.83
2023-10-10T05:53:00.671Z,100345.41
2023-10-10T05:54:03.500Z,100348.00
2023-10-10T05:55:07.264Z,100345.37
2023-10-10T05:56:09.789Z,100340.91
2023-10-10T05:57:12.174Z,100339.14
2023-10-10T05:58:15.134Z,100339.98
2023-10-10T05:59:17.406Z,100344.28
2023-10-10T06:00:20.263Z,100342.48
2023-10-10T06:01:22.686Z,100350.34
2023-10-10T06:02:25.077Z,100354.67
2023-10-10T06:03:28.049Z,100351.10
2023-10-10T06:04:30.836Z,100355.44
2023-10-10T06:06:43.508Z,100355.03
2023-10-10T06:07:46.198Z,100347.41
2023-10-10T06:08:48.907Z,100364.03
2023-10-10T06:09:51.184Z,100356.09
2023-10-10T06:10:54.138Z,100360.53
2023-10-10T06:11:56.399Z,100363.16
2023-10-10T06:12:59.722Z,100356.97
2023-10-10T06:14:02.797Z,100360.50
2023-10-10T06:15:08.230Z,100357.90
2023-10-10T06:16:13.155Z,100357.90
2023-10-10T06:17:16.839Z,100358.77
2023-10-10T06:18:20.015Z,100354.37
2023-10-10T06:19:23.445Z,100360.47
2023-10-10T06:20:26.496Z,100363.03
2023-10-10T06:21:29.001Z,100377.02
2023-10-10T06:22:31.589Z,100366.39
2023-10-10T06:23:35.377Z,100372.48
2023-10-10T06:24:37.942Z,100370.69
2023-10-10T06:25:41.303Z,100375.05
2023-10-10T06:26:44.076Z,100368.02
2023-10-10T06:27:47.835Z,100376.78
2023-10-10T06:28:50.535Z,100374.98
2023-10-10T06:29:52.783Z,100384.58
2023-10-10T06:30:56.923Z,100381.91
2023-10-10T06:31:59.249Z,100380.11
2023-10-10T06:33:01.925Z,100390.64
2023-10-10T06:34:04.996Z,100385.38
2023-10-10T06:35:08.953Z,100384.41
2023-10-10T06:36:11.468Z,100376.47
2023-10-10T06:37:14.017Z,100383.47
2023-10-10T06:38:16.857Z,100388.77
2023-10-10T06:39:20.105Z,100384.34
2023-10-10T06:40:22.918Z,100388.59
2023-10-10T06:41:25.225Z,100387.66
2023-10-10T06:42:27.753Z,100387.59
2023-10-10T06:43:30.516Z,100385.78
2023-10-10T06:44:32.786Z,100389.25
2023-10-10T06:45:35.976Z,100386.62
2023-10-10T06:46:39.672Z,100384.78
2023-10-10T06:47:43.103Z,100390.84
2023-10-10T06:48:45.430Z,100386.40
2023-10-10T06:49:47.956Z,100386.30
2023-10-10T06:50:50.922Z,100388.81
2023-10-10T06:51:53.932Z,100386.15
2023-10-10T06:52:56.768Z,100385.17
2023-10-10T06:53:59.032Z,100383.33
2023-10-10T06:55:01.730Z,100384.16
2023-10-10T06:57:14.690Z,100396.09
2023-10-10T06:58:17.511Z,100384.98
2023-10-10T06:59:22.016Z,100378.73
2023-10-10T07:00:26.000Z,100388.34
2023-10-10T07:01:28.529Z,100387.44
2023-10-10T07:02:31.226Z,100382.98
2023-10-10T07:03:33.872Z,100398.70
2023-10-10T07:04:36.607Z,100387.21
2023-10-10T07:05:39.331Z,100393.34
2023-10-10T07:06:41.804Z,100389.77
2023-10-10T07:07:44.660Z,100393.23
2023-10-10T07:08:48.058Z,100388.78
2023-10-10T07:09:50.445Z,100388.67
2023-10-10T07:10:53.364Z,100386.86
2023-10-10T07:12:00.398Z,100385.05
2023-10-10T07:13:05.754Z,100385.05
2023-10-10T07:14:08.194Z,100378.84
2023-10-10T07:15:11.325Z,100384.07
2023-10-10T07:16:14.781Z,100381.35
2023-10-10T07:17:17.508Z,100382.11
2023-10-10T07:18:20.358Z,100375.88
2023-10-10T07:19:22.489Z,100378.48
2023-10-10T07:20:27.006Z,100373.99
2023-10-10T07:21:29.983Z,100378.31
2023-10-10T07:22:34.006Z,100372.02
2023-10-10T07:23:41.177Z,100375.39
2023-10-10T07:24:43.922Z,100371.65
2023-10-10T07:25:46.992Z,100370.61
2023-10-10T07:26:49.511Z,100366.03
2023-10-10T07:27:52.391Z,100370.19
2023-10-10T07:28:54.777Z,100364.74
2023-10-10T07:29:58.465Z,100365.44
2023-10-10T07:31:01.364Z,100375.82
2023-10-10T07:32:03.785Z,100374.78
2023-10-10T07:33:06.053Z,100371.97
2023-10-10T07:34:08.453Z,100370.06
2023-10-10T07:35:11.384Z,100371.57
2023-10-10T07:36:14.498Z,100371.39
2023-10-10T07:37:18.964Z,100378.19
2023-10-10T07:38:21.229Z,100367.43
2023-10-10T07:39:23.552Z,100373.39
2023-10-10T07:40:26.606Z,100376.67
2023-10-10T07:41:29.297Z,100370.38
2023-10-10T07:42:32.293Z,100378.16
2023-10-10T07:43:34.650Z,100378.89
2023-10-10T07:44:37.451Z,100374.38
2023-10-10T07:45:40.003Z,100381.39
2023-10-10T07:46:42.985Z,100376.88
2023-10-10T07:47:45.831Z,100371.36
2023-10-10T07:48:47.983Z,100376.45
2023-10-10T07:49:50.665Z,100378.08
2023-10-10T07:50:53.023Z,100373.47
2023-10-10T07:51:55.896Z,100381.20
2023-10-10T07:52:58.468Z,100378.40
2023-10-10T07:54:02.947Z,100375.57
2023-10-10T07:55:05.728Z,100370.98
2023-10-10T07:56:09.228Z,100371.70
2023-10-10T07:57:11.535Z,100374.10
2023-10-10T07:58:14.516Z,100380.16
2023-10-10T07:59:16.886Z,100373.84
2023-10-10T08:00:19.891Z,100376.30
2023-10-10T08:01:22.356Z,100375.33
2023-10-10T08:02:25.779Z,100374.35
2023-10-10T08:03:28.994Z,100376.08
2023-10-10T08:04:31.315Z,100375.22
2023-10-10T08:05:34.993Z,100372.41
2023-10-10T08:06:37.476Z,100374.00
2023-10-10T08:07:40.197Z,100378.21
2023-10-10T08:08:42.494Z,100371.08
2023-10-10T08:09:45.879Z,100367.45
2023-10-10T08:10:48.157Z,100370.72
2023-10-10T08:11:51.287Z,100376.88
2023-10-10T08:12:53.844Z,100374.06
2023-10-10T08:13:56.619Z,100373.86
2023-10-10T08:14:58.866Z,100369.32
2023-10-10T08:16:01.216Z,100374.45
2023-10-10T08:17:04.102Z,100367.23
2023-10-10T08:18:06.545Z,100372.38
2023-10-10T08:19:08.896Z,100377.56
2023-10-10T08:20:12.925Z,100377.45
2023-10-10T08:21:15.398Z,100377.34
2023-10-10T08:22:21.855Z,100383.23
2023-10-10T08:23:25.460Z,100391.88
2023-10-10T08:24:31.518Z,100387.27
2023-10-10T08:25:51.392Z,100387.17
2023-10-10T08:26:56.812Z,100396.73
2023-10-10T08:28:02.701Z,100388.73
2023-10-10T08:29:09.831Z,100402.03
2023-10-10T08:30:14.951Z,100387.86
2023-10-10T08:31:21.344Z,100399.27
2023-10-10T08:32:24.965Z,100408.14
2023-10-10T08:33:30.574Z,100396.62
2023-10-10T08:34:34.544Z,100401.05
2023-10-10T08:35:43.572Z,100392.24
2023-10-10T08:36:48.424Z,100394.72
2023-10-10T08:37:55.653Z,100389.36
2023-10-10T08:39:01.831Z,100392.78
2023-10-10T08:40:06.120Z,100392.66
2023-10-10T08:41:11.353Z,100388.23
2023-10-10T08:42:16.405Z,100397.72
2023-10-10T08:43:36.134Z,100395.08
2023-10-10T08:44:41.614Z,100387.77
2023-10-10T08:45:50.039Z,100388.52
2023-10-10T08:47:00.044Z,100389.27
2023-10-10T08:48:08.575Z,100390.88
2023-10-10T08:49:19.333Z,100385.51
2023-10-10T08:50:31.628Z,100391.45
2023-10-10T08:51:39.297Z,100395.66
2023-10-10T08:52:44.979Z,100398.12
2023-10-10T08:53:52.516Z,100394.27
2023-10-10T08:54:56.320Z,100401.11
2023-10-10T08:56:04.721Z,100394.72
2023-10-10T08:57:25.140Z,100398.91
2023-10-10T08:58:44.677Z,100401.22
2023-10-10T08:59:47.706Z,100399.23
2023-10-10T09:00:59.350Z,100399.17
2023-10-10T09:02:14.056Z,100399.84
2023-10-10T09:03:25.100Z,100404.92
2023-10-10T09:04:29.509Z,100407.58
2023-10-10T09:05:34.777Z,100410.05
2023-10-10T09:06:42.170Z,100417.81
2023-10-10T09:07:52.629Z,100411.52
2023-10-10T09:08:57.157Z,100414.06
2023-10-10T09:10:06.567Z,100417.52
2023-10-10T09:11:16.538Z,100412.08
2023-10-10T09:12:20.595Z,100415.53
2023-10-10T09:13:25.107Z,100411.09
2023-10-10T09:14:39.947Z,100409.36
2023-10-10T09:15:55.838Z,100409.23
2023-10-10T09:17:06.028Z,100403.98
2023-10-10T09:18:16.511Z,100403.98
2023-10-10T09:19:22.897Z,100403.06
2023-10-10T09:20:28.760Z,100411.95
2023-10-10T09:21:45.167Z,100405.72
2023-10-10T09:22:48.555Z,100403.80
2023-10-10T09:23:51.970Z,100401.14
2023-10-10T09:25:01.696Z,100399.31
2023-10-10T09:26:14.489Z,100400.05
2023-10-10T09:27:26.761Z,100403.50
2023-10-10T09:28:35.536Z,100399.78
2023-10-10T09:29:42.838Z,100400.51
2023-10-10T09:30:50.979Z,100403.80
2023-10-10T09:31:54.653Z,100396.39
2023-10-10T09:32:59.894Z,100397.88
2023-10-10T09:34:20.674Z,100392.50
2023-10-10T09:35:28.348Z,100402.13
2023-10-10T09:36:32.254Z,100390.77
2023-10-10T09:37:37.452Z,100394.29
2023-10-10T09:38:42.875Z,100399.53
2023-10-10T09:39:52.375Z,100395.95
2023-10-10T09:41:02.010Z,100395.88
2023-10-10T09:42:11.567Z,100397.30
2023-10-10T09:43:19.789Z,100395.23
2023-10-10T09:44:24.540Z,100395.09
2023-10-10T09:45:32.094Z,100402.54
2023-10-10T09:46:49.308Z,100401.40
2023-10-10T09:47:54.141Z,100403.81
2023-10-10T09:49:12.089Z,100401.73
2023-10-10T09:50:15.505Z,100396.42
2023-10-10T09:51:23.305Z,100414.16
2023-10-10T09:52:27.297Z,100395.70
2023-10-10T09:53:35.080Z,100405.67
2023-10-10T09:54:40.817Z,100403.27
2023-10-10T09:55:46.214Z,100400.75
2023-10-10T09:56:53.917Z,100402.54
2023-10-10T09:57:58.464Z,100401.40
2023-10-10T09:59:07.427Z,100401.23
2023-10-10T10:00:26.752Z,100394.77
2023-10-10T10:01:22.819Z,100399.87
2023-10-10T10:02:33.064Z,100403.22
2023-10-10T10:03:37.498Z,100403.14
2023-10-10T10:04:42.750Z,100407.38
2023-10-10T10:05:52.798Z,100405.38
2023-10-10T10:07:22.645Z,100413.09
2023-10-10T10:08:46.042Z,100405.70
2023-10-10T10:10:16.551Z,100406.48
2023-10-10T10:11:37.375Z,100410.80
2023-10-10T10:13:02.584Z,100406.41
2023-10-10T10:14:23.299Z,100404.77
2023-10-10T10:15:50.332Z,100401.45
2023-10-10T10:17:00.750Z,100402.57
2023-10-10T10:19:36.007Z,100407.38
2023-10-10T10:20:41.792Z,100409.56
2023-10-10T10:21:59.409Z,100408.84
2023-10-10T10:23:03.603Z,100409.85
2023-10-10T10:24:08.920Z,100394.98
2023-10-10T10:25:14.148Z,100416.23
2023-10-10T10:26:18.064Z,100411.17
2023-10-10T10:27:30.078Z,100404.13
2023-10-10T10:28:35.032Z,100409.44
2023-10-10T10:29:39.810Z,100415.77
2023-10-10T10:30:48.380Z,100413.10
2023-10-10T10:31:58.060Z,100422.22
2023-10-10T10:33:05.025Z,100421.52
2023-10-10T10:34:14.372Z,100416.48
2023-10-10T10:35:48.885Z,100413.89
2023-10-10T10:37:06.388Z,100417.55
2023-10-10T10:38:13.554Z,100415.69
2023-10-10T10:39:34.603Z,100411.96
2023-10-10T10:40:42.392Z,100418.00
2023-10-10T10:41:48.271Z,100412.45
2023-10-10T10:42:56.373Z,100413.24
2023-10-10T10:44:04.115Z,100413.03
2023-10-10T10:45:25.801Z,100413.66
2023-10-10T10:46:32.880Z,100420.48
2023-10-10T10:47:40.717Z,100413.02
2023-10-10T10:48:44.735Z,100410.11
2023-10-10T10:49:55.089Z,100407.96
2023-10-10T10:52:37.748Z,100403.85
2023-10-10T10:53:41.601Z,100412.12
2023-10-10T10:54:46.338Z,100411.76
2023-10-10T10:55:49.812Z,100416.03
2023-10-10T10:56:52.552Z,100419.81
2023-10-10T10:57:57.761Z,100424.42
2023-10-10T10:59:13.381Z,100423.70
2023-10-10T11:00:15.936Z,100419.78
2023-10-10T11:01:18.734Z,100420.86
2023-10-10T11:02:32.381Z,100425.53
2023-10-10T11:03:36.988Z,100422.12
2023-10-10T11:04:40.852Z,100430.23
2023-10-10T11:05:44.432Z,100427.58
2023-10-10T11:06:51.862Z,100437.34
2023-10-10T11:07:58.687Z,100440.94
2023-10-10T11:09:01.026Z,100441.95
2023-10-10T11:10:04.085Z,100435.36
2023-10-10T11:11:06.773Z,100430.18
2023-10-10T11:12:10.083Z,100430.33
2023-10-10T11:13:12.899Z,100440.95
2023-10-10T11:14:15.794Z,100433.30
2023-10-10T11:15:18.649Z,100434.23
2023-10-10T11:17:32.254Z,100429.39
2023-10-10T11:18:35.615Z,100440.75
2023-10-10T11:19:38.663Z,100439.75
2023-10-10T11:20:41.069Z,100439.68
2023-10-10T11:21:43.500Z,100435.30
2023-10-10T11:22:45.808Z,100434.50
2023-10-10T11:23:49.328Z,100436.37
2023-10-10T11:24:51.957Z,100437.47
2023-10-10T11:25:55.952Z,100435.74
2023-10-10T11:27:04.655Z,100444.64
2023-10-10T11:28:07.032Z,100442.19
2023-10-10T11:29:24.540Z,100443.13
2023-10-10T11:30:26.938Z,100439.73
2023-10-10T11:31:35.482Z,100440.53
2023-10-10T11:32:41.924Z,100447.58
2023-10-10T11:33:45.765Z,100444.05
2023-10-10T11:34:48.193Z,100446.64
2023-10-10T11:35:50.629Z,100444.91
2023-10-10T11:38:05.454Z,100452.38
2023-10-10T11:39:27.710Z,100455.67
2023-10-10T11:40:31.512Z,100460.00
2023-10-10T11:41:36.550Z,100458.20
2023-10-10T11:42:38.832Z,100459.00
2023-10-10T11:44:02.357Z,100456.20
2023-10-10T11:45:07.444Z,100458.72
2023-10-10T11:46:10.166Z,100454.97
2023-10-10T11:47:13.851Z,100462.01
2023-10-10T11:48:17.513Z,100451.38
2023-10-10T11:49:21.196Z,100454.97
2023-10-10T11:50:26.420Z,100458.55
2023-10-10T11:51:35.904Z,100457.00
2023-10-10T11:52:59.474Z,100453.55
2023-10-10T11:54:02.875Z,100451.82
2023-10-10T11:55:05.309Z,100465.97
2023-10-10T11:56:08.758Z,100448.30
2023-10-10T11:57:11.083Z,100459.86
2023-10-10T11:58:13.961Z,100460.00
2023-10-10T11:59:17.580Z,100460.06
2023-10-10T12:00:27.654Z,100460.99
2023-10-10T12:01:26.586Z,100459.27
2023-10-10T12:02:30.182Z,100458.56
2023-10-10T12:03:33.977Z,100461.16
2023-10-10T12:04:37.099Z,100460.30
2023-10-10T12:05:40.317Z,100460.30
2023-10-10T12:06:42.887Z,100462.85
2023-10-10T12:07:45.838Z,100458.50
2023-10-10T12:08:49.202Z,100466.47
2023-10-10T12:09:51.714Z,100476.06
2023-10-10T12:10:55.970Z,100462.85
2023-10-10T12:11:58.920Z,100466.47
2023-10-10T12:13:01.817Z,100467.41
2023-10-10T12:14:04.278Z,100466.54
2023-10-10T12:15:08.196Z,100466.61
2023-10-10T12:16:10.754Z,100465.81
2023-10-10T12:17:13.790Z,100466.73
2023-10-10T12:18:16.203Z,100464.95
2023-10-10T12:19:19.575Z,100468.47
2023-10-10T12:20:22.635Z,100462.29
2023-10-10T12:21:25.612Z,100470.98
2023-10-10T12:22:28.268Z,100464.74
2023-10-10T12:23:31.593Z,100467.23
2023-10-10T12:24:35.013Z,100464.52
2023-10-10T12:25:37.897Z,100469.76
2023-10-10T12:26:41.115Z,100476.00
2023-10-10T12:27:43.577Z,100475.08
2023-10-10T12:28:45.924Z,100469.99
2023-10-10T12:29:48.413Z,100476.23